sensor_id;sensor_type;location;lat;lon;timestamp;pressure;altitude;pressure_sealevel;temperature;humidity
34506;BME280;20748;42.632;23.198;2023-06-19T00:01:37;92182.31;;;16.65;97.69
34506;BME280;20748;42.632;23.198;2023-06-19T00:04:10;92186.47;;;16.54;98.20
34506;BME280;20748;42.632;23.198;2023-06-19T00:06:42;92180.88;;;16.55;96.81
34506;BME280;20748;42.632;23.198;2023-06-19T00:09:15;92171.78;;;16.53;96.21
34506;BME280;20748;42.632;23.198;2023-06-19T00:11:48;92175.94;;;16.54;95.75
34506;BME280;20748;42.632;23.198;2023-06-19T00:17:19;92179.78;;;16.56;100.00
34506;BME280;20748;42.632;23.198;2023-06-19T00:19:52;92176.16;;;16.48;100.00
34506;BME280;20748;42.632;23.198;2023-06-19T00:22:25;92175.09;;;16.49;100.00
34506;BME280;20748;42.632;23.198;2023-06-19T00:24:57;92167.50;;;16.48;100.00
34506;BME280;20748;42.632;23.198;2023-06-19T00:27:30;92167.50;;;16.48;100.00
34506;BME280;20748;42.632;23.198;2023-06-19T00:30:04;92166.53;;;16.28;100.00
34506;BME280;20748;42.632;23.198;2023-06-19T00:32:38;92165.84;;;16.31;100.00
34506;BME280;20748;42.632;23.198;2023-06-19T00:35:18;92168.06;;;16.41;100.00
34506;BME280;20748;42.632;23.198;2023-06-19T00:43:25;92166.53;;;16.40;100.00
34506;BME280;20748;42.632;23.198;2023-06-19T00:45:57;92162.03;;;16.41;100.00
34506;BME280;20748;42.632;23.198;2023-06-19T00:48:31;92162.16;;;16.44;100.00
34506;BME280;20748;42.632;23.198;2023-06-19T00:51:04;92161.38;;;16.44;100.00
34506;BME280;20748;42.632;23.198;2023-06-19T00:53:37;92158.53;;;16.36;100.00
34506;BME280;20748;42.632;23.198;2023-06-19T00:56:10;92158.94;;;16.38;100.00
34506;BME280;20748;42.632;23.198;2023-06-19T00:58:43;92153.38;;;16.40;100.00
34506;BME280;20748;42.632;23.198;2023-06-19T01:06:54;92146.00;;;16.33;100.00
34506;BME280;20748;42.632;23.198;2023-06-19T01:09:33;92143.03;;;16.35;100.00
34506;BME280;20748;42.632;23.198;2023-06-19T01:12:10;92134.41;;;16.34;100.00
34506;BME280;20748;42.632;23.198;2023-06-19T01:14:48;92137.03;;;16.34;100.00
34506;BME280;20748;42.632;23.198;2023-06-19T01:17:22;92142.63;;;16.33;100.00
34506;BME280;20748;42.632;23.198;2023-06-19T01:19:55;92133.94;;;16.32;100.00
34506;BME280;20748;42.632;23.198;2023-06-19T01:22:30;92131.53;;;16.27;100.00
34506;BME280;20748;42.632;23.198;2023-06-19T01:25:21;92129.88;;;16.22;100.00
34506;BME280;20748;42.632;23.198;2023-06-19T01:27:54;92125.16;;;16.16;100.00
34506;BME280;20748;42.632;23.198;2023-06-19T01:30:26;92131.84;;;16.13;100.00
34506;BME280;20748;42.632;23.198;2023-06-19T01:33:05;92132.22;;;16.12;100.00
34506;BME280;20748;42.632;23.198;2023-06-19T01:35:42;92137.78;;;16.10;100.00
34506;BME280;20748;42.632;23.198;2023-06-19T01:38:16;92140.53;;;16.01;100.00
34506;BME280;20748;42.632;23.198;2023-06-19T01:40:50;92141.84;;;15.95;100.00
34506;BME280;20748;42.632;23.198;2023-06-19T01:48:45;92148.78;;;15.78;100.00
34506;BME280;20748;42.632;23.198;2023-06-19T01:51:17;92144.63;;;15.77;100.00
34506;BME280;20748;42.632;23.198;2023-06-19T01:53:50;92148.69;;;15.75;100.00
34506;BME280;20748;42.632;23.198;2023-06-19T01:56:23;92150.22;;;15.76;100.00
34506;BME280;20748;42.632;23.198;2023-06-19T01:58:56;92150.50;;;15.62;100.00
34506;BME280;20748;42.632;23.198;2023-06-19T02:01:29;92156.31;;;15.55;100.00
34506;BME280;20748;42.632;23.198;2023-06-19T02:04:02;92150.06;;;15.47;100.00
34506;BME280;20748;42.632;23.198;2023-06-19T02:09:56;92155.31;;;15.47;100.00
34506;BME280;20748;42.632;23.198;2023-06-19T02:12:29;92163.06;;;15.43;100.00
34506;BME280;20748;42.632;23.198;2023-06-19T02:15:02;92168.53;;;15.38;100.00
34506;BME280;20748;42.632;23.198;2023-06-19T02:17:35;92162.06;;;15.36;100.00
34506;BME280;20748;42.632;23.198;2023-06-19T02:20:10;92169.03;;;15.32;100.00
34506;BME280;20748;42.632;23.198;2023-06-19T02:22:43;92169.72;;;15.28;100.00
34506;BME280;20748;42.632;23.198;2023-06-19T02:25:16;92170.16;;;15.30;100.00
34506;BME280;20748;42.632;23.198;2023-06-19T02:31:44;92171.13;;;15.26;100.00
34506;BME280;20748;42.632;23.198;2023-06-19T02:34:17;92165.16;;;15.16;100.00
34506;BME280;20748;42.632;23.198;2023-06-19T02:36:52;92166.69;;;15.17;100.00
34506;BME280;20748;42.632;23.198;2023-06-19T02:39:25;92174.25;;;15.19;100.00
34506;BME280;20748;42.632;23.198;2023-06-19T02:41:57;92167.53;;;15.09;100.00
34506;BME280;20748;42.632;23.198;2023-06-19T02:44:33;92169.06;;;15.10;100.00
34506;BME280;20748;42.632;23.198;2023-06-19T02:47:06;92165.75;;;15.01;100.00
34506;BME280;20748;42.632;23.198;2023-06-19T02:54:59;92165.28;;;14.99;100.00
34506;BME280;20748;42.632;23.198;2023-06-19T02:57:32;92169.19;;;14.93;100.00
34506;BME280;20748;42.632;23.198;2023-06-19T03:00:05;92171.84;;;14.93;100.00
34506;BME280;20748;42.632;23.198;2023-06-19T03:02:38;92176.97;;;14.89;100.00
34506;BME280;20748;42.632;23.198;2023-06-19T03:05:14;92171.13;;;14.83;100.00
34506;BME280;20748;42.632;23.198;2023-06-19T03:07:47;92173.41;;;14.85;100.00
34506;BME280;20748;42.632;23.198;2023-06-19T03:10:20;92170.09;;;14.75;100.00
34506;BME280;20748;42.632;23.198;2023-06-19T03:16:47;92180.94;;;14.65;100.00
34506;BME280;20748;42.632;23.198;2023-06-19T03:19:20;92169.09;;;14.59;100.00
34506;BME280;20748;42.632;23.198;2023-06-19T03:21:53;92173.91;;;14.57;100.00
34506;BME280;20748;42.632;23.198;2023-06-19T03:24:26;92174.25;;;14.46;100.00
34506;BME280;20748;42.632;23.198;2023-06-19T03:27:02;92180.50;;;14.33;100.00
34506;BME280;20748;42.632;23.198;2023-06-19T03:29:36;92177.41;;;14.31;100.00
34506;BME280;20748;42.632;23.198;2023-06-19T03:32:12;92174.31;;;14.38;100.00
34506;BME280;20748;42.632;23.198;2023-06-19T03:40:08;92171.13;;;14.23;100.00
34506;BME280;20748;42.632;23.198;2023-06-19T03:42:47;92178.56;;;14.21;100.00
34506;BME280;20748;42.632;23.198;2023-06-19T03:45:20;92180.09;;;14.22;100.00
34506;BME280;20748;42.632;23.198;2023-06-19T03:47:53;92178.84;;;14.19;100.00
34506;BME280;20748;42.632;23.198;2023-06-19T03:50:25;92179.50;;;14.16;100.00
34506;BME280;20748;42.632;23.198;2023-06-19T03:53:03;92173.78;;;14.14;100.00
34506;BME280;20748;42.632;23.198;2023-06-19T03:55:37;92169.00;;;14.16;100.00
34506;BME280;20748;42.632;23.198;2023-06-19T04:03:30;92173.03;;;14.14;100.00
34506;BME280;20748;42.632;23.198;2023-06-19T04:06:03;92168.09;;;14.12;100.00
34506;BME280;20748;42.632;23.198;2023-06-19T04:08:35;92179.03;;;14.14;100.00
34506;BME280;20748;42.632;23.198;2023-06-19T04:11:08;92172.91;;;14.10;100.00
34506;BME280;20748;42.632;23.198;2023-06-19T04:13:40;92173.78;;;14.14;100.00
34506;BME280;20748;42.632;23.198;2023-06-19T04:16:13;92170.41;;;14.14;100.00
34506;BME280;20748;42.632;23.198;2023-06-19T04:18:47;92169.44;;;14.18;100.00
34506;BME280;20748;42.632;23.198;2023-06-19T04:21:20;92173.91;;;14.18;100.00
34506;BME280;20748;42.632;23.198;2023-06-19T04:29:31;92168.31;;;14.28;100.00
34506;BME280;20748;42.632;23.198;2023-06-19T04:32:04;92165.38;;;14.30;100.00
34506;BME280;20748;42.632;23.198;2023-06-19T04:34:43;92167.31;;;14.42;100.00
34506;BME280;20748;42.632;23.198;2023-06-19T04:37:17;92167.13;;;14.47;100.00
34506;BME280;20748;42.632;23.198;2023-06-19T04:39:51;92163.13;;;14.49;100.00
34506;BME280;20748;42.632;23.198;2023-06-19T04:42:24;92164.81;;;14.54;100.00
34506;BME280;20748;42.632;23.198;2023-06-19T04:44:58;92164.16;;;14.57;100.00
34506;BME280;20748;42.632;23.198;2023-06-19T04:52:51;92168.56;;;14.74;100.00
34506;BME280;20748;42.632;23.198;2023-06-19T04:55:24;92166.94;;;14.82;100.00
34506;BME280;20748;42.632;23.198;2023-06-19T04:57:57;92163.69;;;14.85;100.00
34506;BME280;20748;42.632;23.198;2023-06-19T05:00:29;92165.47;;;14.94;100.00
34506;BME280;20748;42.632;23.198;2023-06-19T05:03:02;92162.78;;;15.02;100.00
34506;BME280;20748;42.632;23.198;2023-06-19T05:05:34;92157.78;;;15.10;100.00
34506;BME280;20748;42.632;23.198;2023-06-19T05:08:08;92162.97;;;15.19;100.00
34506;BME280;20748;42.632;23.198;2023-06-19T05:14:39;92163.84;;;15.44;100.00
34506;BME280;20748;42.632;23.198;2023-06-19T05:17:12;92168.88;;;15.49;100.00
34506;BME280;20748;42.632;23.198;2023-06-19T05:19:44;92163.34;;;15.63;100.00
34506;BME280;20748;42.632;23.198;2023-06-19T05:22:17;92166.47;;;15.78;100.00
34506;BME280;20748;42.632;23.198;2023-06-19T05:24:50;92165.53;;;15.95;100.00
34506;BME280;20748;42.632;23.198;2023-06-19T05:27:22;92169.69;;;16.08;100.00
34506;BME280;20748;42.632;23.198;2023-06-19T05:29:55;92183.31;;;16.23;100.00
34506;BME280;20748;42.632;23.198;2023-06-19T05:35:26;92192.63;;;16.58;100.00
34506;BME280;20748;42.632;23.198;2023-06-19T05:37:58;92194.50;;;16.70;98.32
34506;BME280;20748;42.632;23.198;2023-06-19T05:40:31;92191.63;;;16.87;97.84
34506;BME280;20748;42.632;23.198;2023-06-19T05:43:04;92201.03;;;17.01;97.79
34506;BME280;20748;42.632;23.198;2023-06-19T05:45:37;92195.88;;;17.04;94.49
34506;BME280;20748;42.632;23.198;2023-06-19T05:48:10;92196.53;;;17.14;94.77
34506;BME280;20748;42.632;23.198;2023-06-19T05:50:43;92193.63;;;17.31;94.67
34506;BME280;20748;42.632;23.198;2023-06-19T05:56:05;92200.44;;;17.61;94.07
34506;BME280;20748;42.632;23.198;2023-06-19T05:58:38;92204.19;;;17.76;92.35
34506;BME280;20748;42.632;23.198;2023-06-19T06:01:11;92206.53;;;17.94;92.46
34506;BME280;20748;42.632;23.198;2023-06-19T06:03:44;92208.53;;;18.13;92.11
34506;BME280;20748;42.632;23.198;2023-06-19T06:06:16;92205.91;;;18.29;87.80
34506;BME280;20748;42.632;23.198;2023-06-19T06:08:48;92213.91;;;18.49;87.09
34506;BME280;20748;42.632;23.198;2023-06-19T06:11:21;92209.53;;;18.57;82.33
34506;BME280;20748;42.632;23.198;2023-06-19T06:17:53;92219.00;;;18.74;75.75
34506;BME280;20748;42.632;23.198;2023-06-19T06:20:25;92210.84;;;18.99;76.86
34506;BME280;20748;42.632;23.198;2023-06-19T06:22:58;92222.25;;;19.19;79.43
34506;BME280;20748;42.632;23.198;2023-06-19T06:25:30;92214.81;;;19.25;76.18
34506;BME280;20748;42.632;23.198;2023-06-19T06:28:03;92218.94;;;19.42;74.68
34506;BME280;20748;42.632;23.198;2023-06-19T06:30:36;92219.41;;;19.48;73.22
34506;BME280;20748;42.632;23.198;2023-06-19T06:33:11;92222.56;;;19.53;75.29
34506;BME280;20748;42.632;23.198;2023-06-19T06:39:41;92222.19;;;19.75;71.66
34506;BME280;20748;42.632;23.198;2023-06-19T06:42:13;92227.94;;;20.00;72.73
34506;BME280;20748;42.632;23.198;2023-06-19T06:44:45;92230.53;;;20.16;73.16
34506;BME280;20748;42.632;23.198;2023-06-19T06:47:18;92232.72;;;20.34;71.89
34506;BME280;20748;42.632;23.198;2023-06-19T06:49:50;92233.09;;;20.59;70.73
34506;BME280;20748;42.632;23.198;2023-06-19T06:52:23;92227.75;;;20.83;71.58
34506;BME280;20748;42.632;23.198;2023-06-19T06:54:56;92225.91;;;21.10;69.84
34506;BME280;20748;42.632;23.198;2023-06-19T07:02:48;92226.97;;;21.67;69.28
34506;BME280;20748;42.632;23.198;2023-06-19T07:05:22;92223.78;;;21.84;66.00
34506;BME280;20748;42.632;23.198;2023-06-19T07:07:54;92226.63;;;22.03;66.16
34506;BME280;20748;42.632;23.198;2023-06-19T07:10:27;92221.00;;;22.08;63.80
34506;BME280;20748;42.632;23.198;2023-06-19T07:13:02;92222.22;;;22.18;64.45
34506;BME280;20748;42.632;23.198;2023-06-19T07:15:35;92224.22;;;22.28;63.07
34506;BME280;20748;42.632;23.198;2023-06-19T07:18:08;92221.63;;;22.39;62.42
34506;BME280;20748;42.632;23.198;2023-06-19T07:23:23;92217.44;;;22.83;62.52
34506;BME280;20748;42.632;23.198;2023-06-19T07:25:56;92225.91;;;22.96;62.25
34506;BME280;20748;42.632;23.198;2023-06-19T07:28:29;92225.63;;;23.16;62.44
34506;BME280;20748;42.632;23.198;2023-06-19T07:31:02;92236.31;;;23.23;58.61
34506;BME280;20748;42.632;23.198;2023-06-19T07:33:34;92229.59;;;22.84;57.86
34506;BME280;20748;42.632;23.198;2023-06-19T07:36:07;92237.53;;;22.77;58.49
34506;BME280;20748;42.632;23.198;2023-06-19T07:38:41;92222.72;;;22.76;60.12
34506;BME280;20748;42.632;23.198;2023-06-19T07:44:19;92238.25;;;22.74;55.98
34506;BME280;20748;42.632;23.198;2023-06-19T07:46:52;92228.56;;;23.00;57.99
34506;BME280;20748;42.632;23.198;2023-06-19T07:49:25;92234.34;;;23.16;56.84
34506;BME280;20748;42.632;23.198;2023-06-19T07:51:57;92230.69;;;22.76;57.14
34506;BME280;20748;42.632;23.198;2023-06-19T07:54:30;92233.19;;;23.10;57.83
34506;BME280;20748;42.632;23.198;2023-06-19T07:57:03;92239.66;;;23.16;51.75
34506;BME280;20748;42.632;23.198;2023-06-19T07:59:36;92238.66;;;23.32;52.32
34506;BME280;20748;42.632;23.198;2023-06-19T08:05:51;92239.81;;;23.35;49.47
34506;BME280;20748;42.632;23.198;2023-06-19T08:08:27;92237.63;;;23.58;49.87
34506;BME280;20748;42.632;23.198;2023-06-19T08:11:00;92234.59;;;23.53;48.17
34506;BME280;20748;42.632;23.198;2023-06-19T08:13:33;92235.75;;;23.55;50.77
34506;BME280;20748;42.632;23.198;2023-06-19T08:16:05;92238.81;;;23.68;48.75
34506;BME280;20748;42.632;23.198;2023-06-19T08:18:38;92239.81;;;23.38;45.23
34506;BME280;20748;42.632;23.198;2023-06-19T08:21:11;92235.31;;;23.46;47.42
34506;BME280;20748;42.632;23.198;2023-06-19T08:26:38;92229.47;;;24.29;46.90
34506;BME280;20748;42.632;23.198;2023-06-19T08:29:11;92226.06;;;24.58;48.77
34506;BME280;20748;42.632;23.198;2023-06-19T08:31:43;92236.00;;;24.57;45.49
34506;BME280;20748;42.632;23.198;2023-06-19T08:34:15;92233.69;;;24.66;45.02
34506;BME280;20748;42.632;23.198;2023-06-19T08:36:48;92241.31;;;24.43;44.32
34506;BME280;20748;42.632;23.198;2023-06-19T08:39:20;92242.81;;;24.25;48.52
34506;BME280;20748;42.632;23.198;2023-06-19T08:41:56;92242.44;;;24.27;50.36
34506;BME280;20748;42.632;23.198;2023-06-19T08:47:17;92233.34;;;24.79;45.29
34506;BME280;20748;42.632;23.198;2023-06-19T08:49:50;92238.28;;;25.02;44.93
34506;BME280;20748;42.632;23.198;2023-06-19T08:52:22;92228.34;;;25.10;44.58
34506;BME280;20748;42.632;23.198;2023-06-19T08:54:54;92243.63;;;25.02;43.91
34506;BME280;20748;42.632;23.198;2023-06-19T08:57:34;92239.38;;;25.19;44.14
34506;BME280;20748;42.632;23.198;2023-06-19T09:00:08;92237.84;;;25.22;41.77
34506;BME280;20748;42.632;23.198;2023-06-19T09:02:45;92242.84;;;24.98;43.34
34506;BME280;20748;42.632;23.198;2023-06-19T09:08:41;92243.22;;;25.07;44.33
34506;BME280;20748;42.632;23.198;2023-06-19T09:11:18;92245.16;;;24.82;42.85
34506;BME280;20748;42.632;23.198;2023-06-19T09:13:56;92230.28;;;24.99;44.71
34506;BME280;20748;42.632;23.198;2023-06-19T09:16:36;92238.31;;;24.91;42.33
34506;BME280;20748;42.632;23.198;2023-06-19T09:19:09;92241.31;;;24.72;41.58
34506;BME280;20748;42.632;23.198;2023-06-19T09:21:42;92238.66;;;25.04;42.97
34506;BME280;20748;42.632;23.198;2023-06-19T09:24:15;92241.69;;;25.14;39.67
34506;BME280;20748;42.632;23.198;2023-06-19T09:35:45;92234.44;;;25.25;39.71
34506;BME280;20748;42.632;23.198;2023-06-19T09:38:21;92232.84;;;25.57;40.06
34506;BME280;20748;42.632;23.198;2023-06-19T09:40:55;92238.88;;;25.76;42.46
34506;BME280;20748;42.632;23.198;2023-06-19T09:43:33;92246.56;;;25.52;38.87
34506;BME280;20748;42.632;23.198;2023-06-19T09:46:06;92242.00;;;25.59;39.47
34506;BME280;20748;42.632;23.198;2023-06-19T09:48:41;92244.47;;;26.03;39.63
34506;BME280;20748;42.632;23.198;2023-06-19T09:51:25;92229.72;;;25.77;39.93
34506;BME280;20748;42.632;23.198;2023-06-19T10:00:37;92232.19;;;26.24;37.75
34506;BME280;20748;42.632;23.198;2023-06-19T10:03:12;92223.00;;;26.25;38.17
34506;BME280;20748;42.632;23.198;2023-06-19T10:05:45;92217.16;;;26.41;39.45
34506;BME280;20748;42.632;23.198;2023-06-19T10:08:27;92218.53;;;26.64;40.92
34506;BME280;20748;42.632;23.198;2023-06-19T10:11:00;92221.44;;;26.20;40.19
34506;BME280;20748;42.632;23.198;2023-06-19T10:13:34;92218.91;;;26.62;39.48
34506;BME280;20748;42.632;23.198;2023-06-19T10:16:19;92216.91;;;26.74;42.19
34506;BME280;20748;42.632;23.198;2023-06-19T10:21:46;92213.22;;;26.57;41.20
34506;BME280;20748;42.632;23.198;2023-06-19T10:24:19;92205.72;;;26.86;40.54
34506;BME280;20748;42.632;23.198;2023-06-19T10:26:56;92204.66;;;26.76;39.68
34506;BME280;20748;42.632;23.198;2023-06-19T10:29:38;92208.69;;;26.50;42.30
34506;BME280;20748;42.632;23.198;2023-06-19T10:32:11;92218.59;;;26.57;37.15
34506;BME280;20748;42.632;23.198;2023-06-19T10:34:45;92206.69;;;26.61;39.41
34506;BME280;20748;42.632;23.198;2023-06-19T10:37:32;92224.81;;;26.35;36.03
34506;BME280;20748;42.632;23.198;2023-06-19T10:47:45;92202.56;;;26.49;37.33
34506;BME280;20748;42.632;23.198;2023-06-19T10:50:17;92208.78;;;26.35;38.39
34506;BME280;20748;42.632;23.198;2023-06-19T10:52:53;92210.75;;;26.77;40.41
34506;BME280;20748;42.632;23.198;2023-06-19T10:55:29;92208.75;;;26.88;37.37
34506;BME280;20748;42.632;23.198;2023-06-19T10:58:04;92206.44;;;26.94;36.76
34506;BME280;20748;42.632;23.198;2023-06-19T11:00:37;92205.41;;;26.80;37.76
34506;BME280;20748;42.632;23.198;2023-06-19T11:03:10;92207.41;;;27.11;37.40
34506;BME280;20748;42.632;23.198;2023-06-19T11:09:47;92209.53;;;27.31;40.45
34506;BME280;20748;42.632;23.198;2023-06-19T11:12:20;92200.88;;;27.16;37.11
34506;BME280;20748;42.632;23.198;2023-06-19T11:14:53;92194.16;;;27.35;37.60
34506;BME280;20748;42.632;23.198;2023-06-19T11:17:25;92197.34;;;27.23;39.36
34506;BME280;20748;42.632;23.198;2023-06-19T11:19:57;92185.97;;;27.50;38.07
34506;BME280;20748;42.632;23.198;2023-06-19T11:22:38;92189.47;;;27.81;36.87
34506;BME280;20748;42.632;23.198;2023-06-19T11:25:11;92190.88;;;28.17;35.39
34506;BME280;20748;42.632;23.198;2023-06-19T11:31:24;92181.25;;;27.92;35.84
34506;BME280;20748;42.632;23.198;2023-06-19T11:33:59;92186.00;;;27.81;36.54
34506;BME280;20748;42.632;23.198;2023-06-19T11:36:37;92189.75;;;28.14;37.66
34506;BME280;20748;42.632;23.198;2023-06-19T11:39:10;92187.53;;;27.82;38.61
34506;BME280;20748;42.632;23.198;2023-06-19T11:41:45;92186.53;;;27.68;40.28
34506;BME280;20748;42.632;23.198;2023-06-19T11:44:17;92186.66;;;27.61;39.60
34506;BME280;20748;42.632;23.198;2023-06-19T11:46:50;92191.84;;;27.72;39.07
34506;BME280;20748;42.632;23.198;2023-06-19T11:52:50;92187.16;;;27.48;38.97
34506;BME280;20748;42.632;23.198;2023-06-19T11:55:23;92181.97;;;27.30;40.51
34506;BME280;20748;42.632;23.198;2023-06-19T11:57:55;92176.22;;;27.32;40.66
34506;BME280;20748;42.632;23.198;2023-06-19T12:00:28;92176.91;;;26.59;37.01
34506;BME280;20748;42.632;23.198;2023-06-19T12:03:00;92179.56;;;26.63;38.74
34506;BME280;20748;42.632;23.198;2023-06-19T12:05:33;92174.31;;;26.94;39.93
34506;BME280;20748;42.632;23.198;2023-06-19T12:08:06;92174.75;;;26.85;40.05
34506;BME280;20748;42.632;23.198;2023-06-19T12:14:38;92176.66;;;26.85;38.17
34506;BME280;20748;42.632;23.198;2023-06-19T12:17:11;92175.66;;;26.71;38.12
34506;BME280;20748;42.632;23.198;2023-06-19T12:19:44;92177.09;;;26.83;37.94
34506;BME280;20748;42.632;23.198;2023-06-19T12:22:16;92174.25;;;26.56;40.00
34506;BME280;20748;42.632;23.198;2023-06-19T12:24:48;92166.06;;;26.74;39.18
34506;BME280;20748;42.632;23.198;2023-06-19T12:27:21;92164.63;;;26.65;40.10
34506;BME280;20748;42.632;23.198;2023-06-19T12:29:54;92170.53;;;26.42;39.75
34506;BME280;20748;42.632;23.198;2023-06-19T12:39:04;92156.44;;;26.34;40.62
34506;BME280;20748;42.632;23.198;2023-06-19T12:41:45;92165.34;;;26.17;42.45
34506;BME280;20748;42.632;23.198;2023-06-19T12:44:17;92169.88;;;26.27;40.99
34506;BME280;20748;42.632;23.198;2023-06-19T12:46:50;92169.72;;;25.85;40.91
34506;BME280;20748;42.632;23.198;2023-06-19T12:49:22;92165.50;;;25.95;41.46
34506;BME280;20748;42.632;23.198;2023-06-19T12:51:55;92166.97;;;25.99;41.86
34506;BME280;20748;42.632;23.198;2023-06-19T12:54:28;92169.72;;;25.89;40.99
34506;BME280;20748;42.632;23.198;2023-06-19T13:02:22;92166.66;;;25.86;40.41
34506;BME280;20748;42.632;23.198;2023-06-19T13:04:55;92167.09;;;25.78;44.42
34506;BME280;20748;42.632;23.198;2023-06-19T13:07:27;92167.22;;;25.56;42.89
34506;BME280;20748;42.632;23.198;2023-06-19T13:10:00;92159.22;;;25.41;41.40
34506;BME280;20748;42.632;23.198;2023-06-19T13:12:33;92164.16;;;25.57;41.41
34506;BME280;20748;42.632;23.198;2023-06-19T13:15:06;92169.13;;;25.48;43.90
34506;BME280;20748;42.632;23.198;2023-06-19T13:17:40;92158.13;;;25.35;43.42
34506;BME280;20748;42.632;23.198;2023-06-19T13:23:09;92170.03;;;25.05;43.63
34506;BME280;20748;42.632;23.198;2023-06-19T13:25:41;92159.69;;;25.14;42.75
34506;BME280;20748;42.632;23.198;2023-06-19T13:28:14;92164.63;;;25.19;43.27
34506;BME280;20748;42.632;23.198;2023-06-19T13:30:46;92157.78;;;25.18;43.35
34506;BME280;20748;42.632;23.198;2023-06-19T13:33:19;92166.19;;;25.20;43.91
34506;BME280;20748;42.632;23.198;2023-06-19T13:35:51;92158.53;;;25.23;42.34
34506;BME280;20748;42.632;23.198;2023-06-19T13:38:25;92162.78;;;25.02;42.56
34506;BME280;20748;42.632;23.198;2023-06-19T13:47:33;92158.63;;;24.75;41.87
34506;BME280;20748;42.632;23.198;2023-06-19T13:50:07;92154.81;;;24.87;42.33
34506;BME280;20748;42.632;23.198;2023-06-19T13:52:39;92157.13;;;24.67;41.20
34506;BME280;20748;42.632;23.198;2023-06-19T13:55:13;92153.31;;;24.83;45.70
34506;BME280;20748;42.632;23.198;2023-06-19T13:57:46;92157.88;;;24.86;42.56
34506;BME280;20748;42.632;23.198;2023-06-19T14:00:19;92157.47;;;24.69;40.56
34506;BME280;20748;42.632;23.198;2023-06-19T14:02:52;92153.69;;;24.74;41.94
34506;BME280;20748;42.632;23.198;2023-06-19T14:08:20;92155.59;;;24.55;41.45
34506;BME280;20748;42.632;23.198;2023-06-19T14:10:53;92146.84;;;24.51;41.87
34506;BME280;20748;42.632;23.198;2023-06-19T14:13:25;92145.34;;;24.28;40.74
34506;BME280;20748;42.632;23.198;2023-06-19T14:15:58;92152.56;;;24.49;41.37
34506;BME280;20748;42.632;23.198;2023-06-19T14:18:30;92149.13;;;24.60;47.89
34506;BME280;20748;42.632;23.198;2023-06-19T14:21:03;92149.50;;;24.58;43.22
34506;BME280;20748;42.632;23.198;2023-06-19T14:23:36;92143.78;;;24.71;43.96
34506;BME280;20748;42.632;23.198;2023-06-19T14:31:35;92146.47;;;24.42;41.38
34506;BME280;20748;42.632;23.198;2023-06-19T14:34:07;92149.13;;;24.52;40.82
34506;BME280;20748;42.632;23.198;2023-06-19T14:36:39;92135.41;;;24.69;44.28
34506;BME280;20748;42.632;23.198;2023-06-19T14:39:12;92141.50;;;24.54;40.29
34506;BME280;20748;42.632;23.198;2023-06-19T14:41:44;92133.50;;;24.58;42.18
34506;BME280;20748;42.632;23.198;2023-06-19T14:44:17;92156.34;;;24.56;41.77
34506;BME280;20748;42.632;23.198;2023-06-19T14:46:50;92139.22;;;24.53;42.11
34506;BME280;20748;42.632;23.198;2023-06-19T14:52:52;92141.50;;;24.58;42.68
34506;BME280;20748;42.632;23.198;2023-06-19T14:55:24;92138.09;;;24.61;42.87
34506;BME280;20748;42.632;23.198;2023-06-19T14:57:57;92137.31;;;24.43;40.49
34506;BME280;20748;42.632;23.198;2023-06-19T15:00:29;92135.00;;;24.63;43.01
34506;BME280;20748;42.632;23.198;2023-06-19T15:03:02;92137.66;;;24.66;43.52
34506;BME280;20748;42.632;23.198;2023-06-19T15:05:34;92133.88;;;24.71;41.60
34506;BME280;20748;42.632;23.198;2023-06-19T15:08:07;92131.94;;;24.75;44.88
34506;BME280;20748;42.632;23.198;2023-06-19T15:10:41;92125.50;;;24.62;45.71
34506;BME280;20748;42.632;23.198;2023-06-19T15:21:05;92130.84;;;24.36;43.21
34506;BME280;20748;42.632;23.198;2023-06-19T15:23:39;92130.84;;;24.36;45.30
34506;BME280;20748;42.632;23.198;2023-06-19T15:26:11;92128.19;;;24.36;45.85
34506;BME280;20748;42.632;23.198;2023-06-19T15:28:44;92131.22;;;24.24;42.37
34506;BME280;20748;42.632;23.198;2023-06-19T15:31:16;92127.06;;;24.12;45.01
34506;BME280;20748;42.632;23.198;2023-06-19T15:33:49;92125.84;;;24.02;45.33
34506;BME280;20748;42.632;23.198;2023-06-19T15:36:22;92124.75;;;23.99;44.94
34506;BME280;20748;42.632;23.198;2023-06-19T15:42:23;92123.56;;;23.90;48.54
34506;BME280;20748;42.632;23.198;2023-06-19T15:44:55;92122.44;;;23.94;49.71
34506;BME280;20748;42.632;23.198;2023-06-19T15:47:28;92120.91;;;23.90;49.75
34506;BME280;20748;42.632;23.198;2023-06-19T15:50:01;92122.41;;;23.83;47.90
34506;BME280;20748;42.632;23.198;2023-06-19T15:52:33;92131.19;;;23.77;49.27
34506;BME280;20748;42.632;23.198;2023-06-19T15:55:06;92123.16;;;23.66;47.83
34506;BME280;20748;42.632;23.198;2023-06-19T15:57:40;92127.75;;;23.72;49.27
34506;BME280;20748;42.632;23.198;2023-06-19T16:07:55;92134.56;;;23.63;49.78
34506;BME280;20748;42.632;23.198;2023-06-19T16:10:27;92131.53;;;23.68;49.41
34506;BME280;20748;42.632;23.198;2023-06-19T16:13:00;92125.03;;;23.54;47.86
34506;BME280;20748;42.632;23.198;2023-06-19T16:15:32;92126.94;;;23.46;48.98
34506;BME280;20748;42.632;23.198;2023-06-19T16:18:05;92128.38;;;23.37;50.52
34506;BME280;20748;42.632;23.198;2023-06-19T16:20:38;92128.00;;;23.31;50.01
34506;BME280;20748;42.632;23.198;2023-06-19T16:23:11;92129.50;;;23.28;51.83
34506;BME280;20748;42.632;23.198;2023-06-19T16:29:36;92136.31;;;23.22;54.56
34506;BME280;20748;42.632;23.198;2023-06-19T16:32:09;92133.22;;;23.09;51.54
34506;BME280;20748;42.632;23.198;2023-06-19T16:34:42;92131.31;;;23.06;51.26
34506;BME280;20748;42.632;23.198;2023-06-19T16:37:15;92138.44;;;22.87;51.34